Terminal Aerodrome Forecast
Issued by NWS Wilmington, OH

Current Version | Previous Version | Graphics & Text | Print | Product List | Glossary On
Versions: 1 2 3 4 5 6 7 8 9 10 11 12 13 14 15 16 17 18 19 20 21 22 23 24 25 26 27 28 29 30 31
000
FTUS41 KILN 270500 AAA
TAFCVG
TAF AMD
KCVG 270557Z 2706/2812 21007KT 5SM BR FEW002 SCT110
     FM271300 20010KT P6SM SCT030 BKN100
     FM271700 24012G22KT P6SM -SHRA VCTS BKN035CB
     FM272200 27014G25KT P6SM BKN040
     FM280100 30010KT P6SM SCT050 BKN250=

USA.gov is the U.S. government's official web portal to all federal, state and local government web resources and services.